createdAt,value
2022-10-31T00:02:52.638Z,0
2022-10-31T00:07:34.901Z,0
2022-10-31T00:12:16.127Z,0
2022-10-31T00:16:58.405Z,0
2022-10-31T00:21:40.773Z,0
2022-10-31T00:31:05.259Z,0
2022-10-31T00:40:29.882Z,0
2022-10-31T00:45:12.118Z,0
2022-10-31T00:49:54.382Z,0
2022-10-31T00:54:36.699Z,0
2022-10-31T00:59:19.001Z,0
2022-10-31T01:04:01.240Z,0
2022-10-31T01:08:43.575Z,0
2022-10-31T01:18:07.043Z,0
2022-10-31T01:27:31.709Z,0
2022-10-31T01:32:13.903Z,0
2022-10-31T01:36:56.198Z,0
2022-10-31T01:41:38.589Z,0
2022-10-31T01:46:20.903Z,0
2022-10-31T01:51:03.015Z,0
2022-10-31T01:55:45.345Z,0
2022-10-31T02:05:09.867Z,0
2022-10-31T02:14:34.472Z,0
2022-10-31T02:19:15.776Z,0
2022-10-31T02:23:57.988Z,0
2022-10-31T02:28:40.295Z,0
2022-10-31T02:33:22.604Z,0
2022-10-31T02:38:04.819Z,0
2022-10-31T02:42:47.128Z,0
2022-10-31T02:47:29.459Z,0
2022-10-31T02:52:11.754Z,0
2022-10-31T03:01:36.295Z,0
2022-10-31T03:06:18.658Z,0
2022-10-31T03:11:00.806Z,0
2022-10-31T03:15:43.109Z,0
2022-10-31T03:20:24.431Z,0
2022-10-31T03:25:06.760Z,0
2022-10-31T03:29:48.959Z,0
2022-10-31T03:39:13.553Z,0
2022-10-31T03:53:20.406Z,0
2022-10-31T03:58:02.645Z,0
2022-10-31T04:02:44.952Z,0
2022-10-31T04:07:27.221Z,0
2022-10-31T04:12:09.529Z,0
2022-10-31T04:16:51.733Z,0
2022-10-31T04:26:15.351Z,0
2022-10-31T04:35:39.875Z,0
2022-10-31T04:40:22.189Z,0
2022-10-31T04:45:04.497Z,0
2022-10-31T04:49:46.706Z,0
2022-10-31T04:54:29.130Z,0
2022-10-31T04:59:11.331Z,0
2022-10-31T05:03:53.555Z,0
2022-10-31T05:08:35.894Z,0
2022-10-31T05:13:18.273Z,0
2022-10-31T05:18:00.478Z,0
2022-10-31T05:22:42.681Z,0
2022-10-31T05:27:23.986Z,0
2022-10-31T05:32:06.300Z,0
2022-10-31T05:36:48.625Z,0
2022-10-31T05:41:30.859Z,0
2022-10-31T05:46:13.130Z,0
2022-10-31T05:50:55.443Z,0
2022-10-31T05:55:37.664Z,5
2022-10-31T06:00:20.010Z,11
2022-10-31T06:05:01.274Z,16
2022-10-31T06:09:43.598Z,22
2022-10-31T06:14:25.001Z,28
2022-10-31T06:19:07.115Z,33
2022-10-31T06:23:49.411Z,39
2022-10-31T06:28:31.748Z,50
2022-10-31T06:33:13.984Z,56
2022-10-31T06:37:56.242Z,61
2022-10-31T06:42:38.555Z,73
2022-10-31T06:47:20.909Z,84
2022-10-31T06:52:03.077Z,90
2022-10-31T06:56:45.386Z,106
2022-10-31T07:01:26.732Z,101
2022-10-31T07:06:09.004Z,101
2022-10-31T07:10:50.313Z,112
2022-10-31T07:15:32.523Z,118
2022-10-31T07:20:14.911Z,118
2022-10-31T07:24:57.177Z,123
2022-10-31T07:29:39.466Z,129
2022-10-31T07:34:21.731Z,140
2022-10-31T07:39:03.976Z,146
2022-10-31T07:43:46.191Z,157
2022-10-31T07:48:28.497Z,163
2022-10-31T07:53:10.895Z,168
2022-10-31T07:57:53.022Z,174
2022-10-31T08:02:35.352Z,191
2022-10-31T08:07:17.679Z,191
2022-10-31T08:11:59.002Z,191
2022-10-31T08:21:23.519Z,213
2022-10-31T08:26:05.818Z,225
2022-10-31T08:30:47.997Z,241
2022-10-31T08:35:30.307Z,315
2022-10-31T08:40:12.617Z,241
2022-10-31T08:44:54.964Z,253
2022-10-31T08:49:37.139Z,393
2022-10-31T08:54:19.456Z,433
2022-10-31T08:59:01.770Z,275
2022-10-31T09:03:44.048Z,309
2022-10-31T09:08:26.286Z,298
2022-10-31T09:13:08.654Z,804
2022-10-31T09:17:49.917Z,1018
2022-10-31T09:22:32.125Z,945
2022-10-31T09:27:14.425Z,984
2022-10-31T09:31:56.653Z,984
2022-10-31T09:36:39.033Z,950
2022-10-31T09:41:21.260Z,967
2022-10-31T09:46:03.524Z,1006
2022-10-31T09:50:45.788Z,1029
2022-10-31T09:55:28.137Z,1096
2022-10-31T10:00:10.452Z,1231
2022-10-31T10:04:52.613Z,1186
2022-10-31T10:09:34.925Z,1209
2022-10-31T10:14:17.261Z,1192
2022-10-31T10:18:59.449Z,1074
2022-10-31T10:23:40.758Z,1108
2022-10-31T10:33:05.286Z,1350
2022-10-31T10:37:47.605Z,1248
2022-10-31T10:42:29.924Z,1456
2022-10-31T10:47:12.246Z,1535
2022-10-31T10:56:36.740Z,1310
2022-10-31T11:01:19.058Z,1288
2022-10-31T11:06:01.267Z,1170
2022-10-31T11:10:43.693Z,1119
2022-10-31T11:15:26.044Z,1119
2022-10-31T11:20:08.356Z,1018
2022-10-31T11:24:50.450Z,1051
2022-10-31T11:29:31.734Z,1074
2022-10-31T11:34:14.039Z,1051
2022-10-31T11:38:56.302Z,961
2022-10-31T11:43:38.579Z,798
2022-10-31T11:48:20.876Z,826
2022-10-31T11:53:03.089Z,905
2022-10-31T11:57:45.439Z,933
2022-10-31T12:02:27.816Z,877
2022-10-31T12:07:10.177Z,905
2022-10-31T12:16:34.537Z,911
2022-10-31T12:21:16.988Z,1051
2022-10-31T12:25:59.156Z,933
2022-10-31T12:30:40.411Z,911
2022-10-31T12:35:22.776Z,939
2022-10-31T12:44:47.204Z,720
2022-10-31T12:49:29.534Z,568
2022-10-31T12:54:11.921Z,433
2022-10-31T13:03:36.420Z,360
2022-10-31T13:08:18.676Z,343
2022-10-31T13:17:43.180Z,298
2022-10-31T13:22:24.539Z,281
2022-10-31T13:27:05.942Z,241
2022-10-31T13:31:48.247Z,219
2022-10-31T13:36:30.475Z,213
2022-10-31T13:41:12.624Z,230
2022-10-31T13:45:54.934Z,258
2022-10-31T13:55:19.496Z,253
2022-10-31T14:00:01.874Z,326
2022-10-31T14:04:43.976Z,568
2022-10-31T14:09:26.427Z,573
2022-10-31T14:14:08.647Z,618
2022-10-31T14:18:50.917Z,545
2022-10-31T14:23:33.158Z,382
2022-10-31T14:28:15.557Z,315
2022-10-31T14:37:40.134Z,213
2022-10-31T14:42:21.331Z,180
2022-10-31T14:47:02.635Z,163
2022-10-31T14:51:44.878Z,151
2022-10-31T14:56:26.211Z,146
2022-10-31T15:01:08.398Z,135
2022-10-31T15:05:50.733Z,118
2022-10-31T15:10:33.023Z,95
2022-10-31T15:15:15.271Z,73
2022-10-31T15:24:39.950Z,39
2022-10-31T15:29:22.061Z,33
2022-10-31T15:34:04.411Z,33
2022-10-31T15:43:28.993Z,22
2022-10-31T15:48:11.251Z,11
2022-10-31T15:52:53.555Z,5
2022-10-31T15:57:34.823Z,5
2022-10-31T16:02:17.035Z,0
2022-10-31T16:06:59.363Z,0
2022-10-31T16:11:41.674Z,0
2022-10-31T16:16:23.862Z,0
2022-10-31T16:21:06.174Z,0
2022-10-31T16:25:48.485Z,0
2022-10-31T16:30:30.790Z,0
2022-10-31T16:35:13.041Z,0
2022-10-31T16:39:55.315Z,0
2022-10-31T16:44:37.637Z,0
2022-10-31T16:49:19.832Z,0
2022-10-31T16:54:02.142Z,0
2022-10-31T16:58:44.453Z,0
2022-10-31T17:03:25.778Z,0
2022-10-31T17:08:07.096Z,0
2022-10-31T17:12:49.291Z,0
2022-10-31T17:17:31.587Z,0
2022-10-31T17:22:13.902Z,0
2022-10-31T17:26:56.115Z,0
2022-10-31T17:31:38.419Z,0
2022-10-31T17:41:02.938Z,0
2022-10-31T17:45:45.266Z,0
2022-10-31T17:55:09.787Z,0
2022-10-31T17:59:52.079Z,0
2022-10-31T18:04:34.390Z,0
2022-10-31T18:09:15.763Z,0
2022-10-31T18:13:57.007Z,0
2022-10-31T18:18:39.231Z,0
2022-10-31T18:23:21.567Z,0
2022-10-31T18:28:03.848Z,0
2022-10-31T18:32:46.082Z,0
2022-10-31T18:37:28.384Z,0
2022-10-31T18:42:10.707Z,0
2022-10-31T18:46:52.875Z,0
2022-10-31T18:51:35.190Z,0
2022-10-31T18:56:17.555Z,0
2022-10-31T19:00:58.828Z,0
2022-10-31T19:05:40.180Z,0
2022-10-31T19:10:22.330Z,0
2022-10-31T19:15:04.699Z,0
2022-10-31T19:19:46.949Z,0
2022-10-31T19:24:29.301Z,0
2022-10-31T19:29:11.534Z,0
2022-10-31T19:38:36.086Z,0
2022-10-31T19:43:18.315Z,0
2022-10-31T19:48:00.608Z,0
2022-10-31T19:52:42.942Z,0
2022-10-31T19:57:25.152Z,0
2022-10-31T20:02:07.456Z,0
2022-10-31T20:06:48.827Z,0
2022-10-31T20:11:31.056Z,0
2022-10-31T20:20:55.587Z,0
2022-10-31T20:25:37.903Z,0
2022-10-31T20:30:19.194Z,0
2022-10-31T20:35:00.550Z,0
2022-10-31T20:39:42.719Z,0
2022-10-31T20:44:24.987Z,0
2022-10-31T20:49:07.296Z,0
2022-10-31T20:53:49.615Z,0
2022-10-31T20:58:31.883Z,0
2022-10-31T21:03:14.169Z,0
2022-10-31T21:07:56.448Z,0
2022-10-31T21:12:38.749Z,0
2022-10-31T21:17:20.981Z,0
2022-10-31T21:22:02.288Z,0
2022-10-31T21:26:43.658Z,0
2022-10-31T21:31:25.889Z,0
2022-10-31T21:36:08.214Z,0
2022-10-31T21:40:50.424Z,0
2022-10-31T21:45:32.718Z,0
2022-10-31T21:50:15.073Z,0
2022-10-31T21:54:57.263Z,0
2022-10-31T21:59:39.585Z,0
2022-10-31T22:04:21.900Z,0
2022-10-31T22:09:04.114Z,0
2022-10-31T22:13:45.382Z,0
2022-10-31T22:18:26.702Z,0
2022-10-31T22:23:09.004Z,0
2022-10-31T22:27:51.317Z,0
2022-10-31T22:32:33.580Z,0
2022-10-31T22:37:15.888Z,0
2022-10-31T22:41:58.262Z,0
2022-10-31T22:46:40.424Z,0
2022-10-31T22:51:22.726Z,0
2022-10-31T22:56:04.983Z,0
2022-10-31T23:00:47.344Z,0
2022-10-31T23:05:29.506Z,0
2022-10-31T23:10:11.818Z,0
2022-10-31T23:14:54.241Z,0
2022-10-31T23:19:35.364Z,0
2022-10-31T23:33:42.254Z,0
2022-10-31T23:38:23.561Z,0
2022-10-31T23:43:04.802Z,0
2022-10-31T23:47:47.079Z,0
2022-10-31T23:52:29.433Z,0
2022-10-31T23:57:11.751Z,0
